Le Grand, California
Current Conditions -  °F | °C
As of 9:53 PM on Friday 19 Dec 2014 (Local Time) from KMCE Reporting Station
Haze Haze  
Wind Chill: 53°   Ceiling: 4900
Heat Index: 53°   Visibility: 6mi
Dew Point: 49°   Wind: 6mph
Humidity: 86%   Direction: 170°S
Pressure: 30.18"   Gusts: NA
Location:  37.23°N, 120.25°W
Report Text: KMCE 200553Z AUTO 17005KT 6SM BR BKN049 BKN080 OVC110 12/09 A3018 RMK AO2 RAE42 SLP221 P0003 60005 T01170094 10133 20117 53003
Loading
Personal Weather Stations






























Interactive Weather Map New forecast layout! Learn more

10-Day Weather Forecast

Advertisements
Track Severe Weather on mobile